Terminal Aerodrome Forecast
Issued by NWS

Home | Current Version | Previous Version | Text Only | Print | Product List | Glossary On
Versions: 1 2 3 4 5 6 7 8 9 10 11 12 13 14 15 16 17 18
000
FTUS45 KRIW 281840 AAA
TAFPNA
TAF AMD
KPNA 281840Z 2819/2918 VRB06KT P6SM BKN050
     FM282100 11008KT P6SM SCT050
     FM290600 VRB05KT P6SM BKN050
     FM291500 VRB05KT P6SM SCT060
      AMD LTD TO CLD VIS AND WIND=

USA.gov is the U.S. government's official web portal to all federal, state and local government web resources and services.